Portada
METAR-TAF:

METAR-TAF

Aeropuertos :

Kermán, Irán

latitud: 30-15N, longitud: 056-58E, altitud: 1748 m

Observación

El informe se hizo hace 33 minutos, a las 11:30 UTC
Viento 12 kt del oeste-noroeste
Temperatura 23°C
Humedad 13%
Presión 1021 hPa
Visibilidad 10 km o más
Escasas nubes a una altura de 4000 ft

METAR: OIKK 041130Z 29012KT 9999 FEW040 23/M07 Q1020 A3014

Hora: 16:33 (12:03 UTC)

Pronóstico

El informe se hizo hace 6 horas y 33 minutos, a las 05:30 UTC
Pronóstico válido del 04 a las 06 UTC al 05 a las 12 UTC
Viento 4 kt del este
Visibilidad: 8000 m
Escasas nubes a una altura de 4000 ft

TAF: OIKK 040530Z 0406/0512 08004KT 8000 FEW040

Observaciones y pronósticos meteorológicos de más de 4000 aeropuertos (mensajes METAR y TAF).

Los puntos amarillos y rojos representan las estaciones disponibles.

Ponga el ratón en el punto deseado para ver el nombre de la estación.

Haga clic para ver las observaciones y los pronósticos meteorológicos.

Para cambiar el mapa : haga clic en los botones verdes con una cruz de color negro para hacer un zoom, en el botón verde con un guión para alejar o en las flechas verdes para mapas adyacentes.


METAR-TAF: